Time;durP1;ratioP1;P1;durP2;ratioP2;P2;SDS_P1;SDS_P2;PMS_P1;PMS_P2;Temp;Humidity;BMP_temperature;BMP_pressure;BME280_temperature;BME280_humidity;BME280_pressure;Samples;Min_cycle;Max_cycle;Signal;HPM_P1;HPM_P2
2023/05/21 00:02:10;;;;;;;2.13;1.45;;;;;;;19.58;53.30;101808.63;6123661;23;20328;-53
2023/05/21 00:04:41;;;;;;;1.73;1.42;;;;;;;19.57;53.51;101806.91;6122857;23;20077;-54
2023/05/21 00:07:09;;;;;;;3.58;1.55;;;;;;;19.58;53.27;101819.44;6123206;23;20118;-54
2023/05/21 00:09:37;;;;;;;1.05;1.05;;;;;;;19.57;53.62;101812.28;6123248;23;20420;-54
2023/05/21 00:12:06;;;;;;;1.23;1.13;;;;;;;19.56;53.39;101799.81;6122752;23;20009;-54
2023/05/21 00:14:32;;;;;;;1.67;1.40;;;;;;;19.56;53.15;101803.34;6122590;23;20022;-53
2023/05/21 00:16:58;;;;;;;2.05;1.48;;;;;;;19.56;53.31;101794.41;6122995;23;20302;-53
2023/05/21 00:19:23;;;;;;;1.80;1.70;;;;;;;19.56;53.25;101799.81;6122806;23;20031;-53
2023/05/21 00:21:49;;;;;;;3.42;1.30;;;;;;;19.54;53.04;101786.41;6122819;23;20061;-54
2023/05/21 00:24:14;;;;;;;2.17;1.50;;;;;;;19.54;53.56;101791.81;6123753;23;20014;-54
2023/05/21 00:26:40;;;;;;;2.13;1.50;;;;;;;19.54;53.30;101795.38;6122852;23;20041;-53
2023/05/21 00:29:05;;;;;;;1.70;1.25;;;;;;;19.53;53.78;101784.69;6122745;23;20018;-53
2023/05/21 00:31:31;;;;;;;1.90;1.60;;;;;;;19.54;53.42;101786.41;6122766;23;20089;-54
2023/05/21 00:33:56;;;;;;;0.98;0.98;;;;;;;19.54;53.23;101789.13;6122900;23;20006;-54
2023/05/21 00:36:22;;;;;;;1.50;1.30;;;;;;;19.53;53.49;101785.56;6122854;23;20035;-54
2023/05/21 00:38:49;;;;;;;1.65;1.52;;;;;;;19.52;53.45;101783.00;6123095;23;20006;-54
2023/05/21 00:41:15;;;;;;;1.40;1.30;;;;;;;19.53;53.21;101784.69;6123372;23;20021;-54
2023/05/21 00:43:41;;;;;;;1.65;1.13;;;;;;;19.52;53.26;101783.00;6123436;23;20009;-53
2023/05/21 00:46:12;;;;;;;1.38;1.25;;;;;;;19.51;53.64;101781.28;6124596;23;20384;-54
2023/05/21 00:48:38;;;;;;;2.03;1.50;;;;;;;19.52;53.21;101773.03;6124785;23;20389;-54
2023/05/21 00:51:04;;;;;;;4.70;1.40;;;;;;;19.51;53.34;101775.88;6124382;23;20006;-53
2023/05/21 00:53:30;;;;;;;3.92;1.75;;;;;;;19.51;53.26;101782.16;6124796;23;20426;-54
2023/05/21 00:55:56;;;;;;;1.23;1.13;;;;;;;19.50;53.52;101780.44;6124469;23;20088;-53
2023/05/21 00:58:22;;;;;;;2.83;1.50;;;;;;;19.50;53.22;101774.19;6124417;23;20013;-54
2023/05/21 01:00:47;;;;;;;1.70;1.52;;;;;;;19.49;53.26;101778.69;6124624;23;20396;-54
2023/05/21 01:03:13;;;;;;;1.52;1.33;;;;;;;19.49;53.43;101777.84;6124781;23;20010;-53
2023/05/21 01:05:39;;;;;;;2.40;1.90;;;;;;;19.50;53.02;101779.56;6124406;23;20020;-53
2023/05/21 01:08:06;;;;;;;1.90;1.48;;;;;;;19.48;53.47;101785.09;6124363;23;20017;-53
2023/05/21 01:10:32;;;;;;;1.20;1.10;;;;;;;19.49;53.41;101772.44;6124167;23;20064;-54
2023/05/21 01:12:58;;;;;;;1.92;1.38;;;;;;;19.49;53.35;101772.44;6124164;23;20084;-54
2023/05/21 01:15:24;;;;;;;2.25;1.17;;;;;;;19.48;53.50;101779.69;6124261;23;20432;-54
2023/05/21 01:17:50;;;;;;;1.60;1.50;;;;;;;19.48;53.44;101773.47;6124549;23;20436;-54
2023/05/21 01:20:18;;;;;;;1.48;1.20;;;;;;;19.48;53.49;101778.84;6124664;23;20006;-54
2023/05/21 01:23:01;;;;;;;1.45;1.20;;;;;;;19.49;53.59;101776.00;6124839;23;20005;-53
2023/05/21 01:25:27;;;;;;;1.70;1.48;;;;;;;19.46;53.51;101762.78;6124433;23;20433;-53
2023/05/21 01:27:52;;;;;;;1.67;1.10;;;;;;;19.47;53.53;101767.19;6098189;23;20034;-54
2023/05/21 01:30:20;;;;;;;2.70;1.45;;;;;;;19.46;53.23;101762.78;6124562;23;20385;-54
2023/05/21 01:32:58;;;;;;;2.22;1.38;;;;;;;19.47;53.66;101766.31;6124821;23;20413;-53
2023/05/21 01:35:28;;;;;;;1.40;1.30;;;;;;;19.46;53.32;101773.59;6123937;23;20010;-53
2023/05/21 01:38:09;;;;;;;1.80;1.33;;;;;;;19.47;53.23;101769.88;6124150;23;20132;-54
2023/05/21 01:41:03;;;;;;;1.63;1.40;;;;;;;19.47;53.36;101767.19;6124196;23;20010;-54
2023/05/21 01:43:31;;;;;;;1.75;1.40;;;;;;;19.46;53.16;101764.63;6124021;23;20042;-53
2023/05/21 01:46:01;;;;;;;2.08;1.40;;;;;;;19.46;53.32;101768.19;6123972;23;20002;-54
2023/05/21 01:48:27;;;;;;;1.20;1.05;;;;;;;19.45;53.19;101766.47;6124153;23;20425;-54
2023/05/21 01:50:56;;;;;;;1.60;1.50;;;;;;;19.43;53.20;101763.03;6124268;23;20417;-53
2023/05/21 01:53:22;;;;;;;1.65;1.40;;;;;;;19.43;53.36;101763.03;6123934;23;20103;-53
2023/05/21 01:55:47;;;;;;;1.50;1.30;;;;;;;19.44;53.03;101759.34;6124684;23;20029;-53
2023/05/21 01:58:14;;;;;;;1.38;1.27;;;;;;;19.43;53.24;101760.34;6123918;23;20013;-53
2023/05/21 02:00:40;;;;;;;1.63;1.33;;;;;;;19.43;53.06;101756.78;6123801;23;20037;-53
2023/05/21 02:03:07;;;;;;;2.17;1.60;;;;;;;19.41;53.03;101759.63;6123983;23;20013;-53
2023/05/21 02:05:33;;;;;;;1.35;1.25;;;;;;;19.42;53.39;101753.25;6123468;23;20013;-54
2023/05/21 02:07:58;;;;;;;1.63;1.27;;;;;;;19.43;52.94;101754.09;6123841;23;20084;-54
2023/05/21 02:10:24;;;;;;;1.50;1.40;;;;;;;19.41;53.25;101751.50;6098072;23;20013;-52
2023/05/21 02:12:50;;;;;;;1.75;1.10;;;;;;;19.43;53.00;101754.09;6123762;23;20088;-53
2023/05/21 02:15:16;;;;;;;1.88;1.50;;;;;;;19.42;53.11;101747.84;6124243;23;20022;-53
2023/05/21 02:17:43;;;;;;;2.55;1.15;;;;;;;19.40;53.43;101746.25;6123777;23;20014;-52
2023/05/21 02:20:11;;;;;;;1.25;1.10;;;;;;;19.41;53.21;101750.66;6123824;23;20088;-53
2023/05/21 02:22:45;;;;;;;1.65;1.17;;;;;;;19.41;53.02;101754.22;6123789;23;20006;-53
2023/05/21 02:25:12;;;;;;;2.20;1.20;;;;;;;19.41;53.39;101743.41;6123941;23;20508;-53
2023/05/21 02:27:38;;;;;;;1.65;1.55;;;;;;;19.41;53.33;101747.97;6123642;23;20375;-53
2023/05/21 02:30:05;;;;;;;1.38;1.27;;;;;;;19.40;53.16;101747.13;6123736;23;20029;-53
2023/05/21 02:32:31;;;;;;;2.25;1.10;;;;;;;19.40;53.15;101747.13;6123547;23;20044;-53
2023/05/21 02:34:57;;;;;;;1.48;1.38;;;;;;;19.40;52.88;101755.22;6123716;23;20006;-53
2023/05/21 02:37:26;;;;;;;1.40;1.30;;;;;;;19.38;53.17;101751.78;6123710;23;20489;-53
2023/05/21 02:39:52;;;;;;;1.40;1.30;;;;;;;19.39;52.90;101753.50;6123587;23;20386;-53
2023/05/21 02:42:17;;;;;;;1.80;1.30;;;;;;;19.40;52.97;101748.94;6124166;23;20006;-53
2023/05/21 02:44:43;;;;;;;1.70;1.40;;;;;;;19.40;53.04;101751.63;6123481;23;20332;-52
2023/05/21 02:47:09;;;;;;;1.88;1.40;;;;;;;19.40;52.83;101746.25;6123645;23;20006;-53
2023/05/21 02:49:34;;;;;;;1.40;1.30;;;;;;;19.38;52.85;101741.00;6097308;23;20445;-53
2023/05/21 02:52:00;;;;;;;1.45;1.33;;;;;;;19.39;52.99;101737.28;6123504;23;20041;-53
2023/05/21 02:54:25;;;;;;;1.52;1.42;;;;;;;19.39;52.99;101745.38;6123434;23;20005;-53
2023/05/21 02:56:50;;;;;;;1.33;1.23;;;;;;;19.38;53.04;101738.28;6124079;23;20006;-53
2023/05/21 02:59:16;;;;;;;1.77;1.25;;;;;;;19.38;52.79;101732.91;6123380;23;20330;-52
2023/05/21 03:01:43;;;;;;;1.48;1.30;;;;;;;19.38;53.02;101732.91;6123236;23;20010;-53
2023/05/21 03:04:09;;;;;;;1.50;1.40;;;;;;;19.37;52.83;101733.88;6123325;23;20010;-53
2023/05/21 03:06:34;;;;;;;1.92;1.40;;;;;;;19.37;53.09;101728.47;6097185;23;20057;-53
2023/05/21 03:08:59;;;;;;;1.60;1.35;;;;;;;19.36;53.24;101725.91;6097178;23;20013;-53
2023/05/21 03:11:25;;;;;;;1.65;1.52;;;;;;;19.38;52.55;101732.00;6123342;23;20410;-53
2023/05/21 03:13:50;;;;;;;1.40;1.30;;;;;;;19.36;52.91;101718.63;6123726;23;20021;-52
2023/05/21 03:16:16;;;;;;;1.60;1.33;;;;;;;19.36;52.87;101721.34;6123158;23;20054;-53
2023/05/21 03:18:42;;;;;;;1.50;1.40;;;;;;;19.36;52.69;101715.94;6123364;23;20017;-52
2023/05/21 03:21:08;;;;;;;1.45;1.35;;;;;;;19.36;52.79;101720.50;6123103;23;20010;-53
2023/05/21 03:23:33;;;;;;;1.42;1.25;;;;;;;19.36;52.91;101715.09;6123230;23;20006;-53
2023/05/21 03:25:59;;;;;;;1.33;1.23;;;;;;;19.35;53.03;101711.53;6123054;23;20016;-53
2023/05/21 03:28:25;;;;;;;1.40;1.30;;;;;;;19.35;53.11;101706.16;6123198;23;20338;-53
2023/05/21 03:30:50;;;;;;;1.73;1.45;;;;;;;19.35;52.94;101711.53;6123793;23;20040;-53
2023/05/21 03:33:16;;;;;;;1.73;1.63;;;;;;;19.34;52.81;101718.81;6122828;23;20010;-53
2023/05/21 03:35:41;;;;;;;1.63;1.30;;;;;;;19.34;52.85;101712.53;6123093;23;20006;-53
2023/05/21 03:38:07;;;;;;;1.85;1.30;;;;;;;19.34;52.76;101707.13;6122925;23;20010;-53
2023/05/21 03:40:32;;;;;;;1.50;1.40;;;;;;;19.34;52.80;101717.91;6123085;23;20053;-54
2023/05/21 03:42:57;;;;;;;1.40;1.30;;;;;;;19.34;52.96;101715.22;6123304;23;20014;-53
2023/05/21 03:45:23;;;;;;;1.40;1.30;;;;;;;19.34;52.77;101720.63;6123777;23;20329;-53
2023/05/21 03:47:48;;;;;;;1.30;1.20;;;;;;;19.34;52.73;101723.31;6121571;23;20017;-53
2023/05/21 03:50:14;;;;;;;1.63;1.52;;;;;;;19.33;53.01;101716.22;6122884;23;20340;-53
2023/05/21 03:52:40;;;;;;;2.10;1.42;;;;;;;19.34;53.21;101712.53;6123123;23;20013;-53
2023/05/21 03:55:05;;;;;;;1.70;1.60;;;;;;;19.34;53.18;101715.22;6123317;23;20081;-53
2023/05/21 03:57:30;;;;;;;3.58;1.52;;;;;;;19.35;52.78;101716.94;6123187;23;20329;-53
2023/05/21 03:59:57;;;;;;;4.05;1.70;;;;;;;19.34;52.95;101717.91;6121369;23;20010;-53
2023/05/21 04:02:25;;;;;;;1.10;1.10;;;;;;;19.33;53.14;101711.66;6123960;23;20018;-53
2023/05/21 04:04:52;;;;;;;1.60;1.50;;;;;;;19.33;53.24;101713.53;6123746;23;20061;-53
2023/05/21 04:07:18;;;;;;;1.27;1.17;;;;;;;19.33;52.91;101722.47;6122894;23;20373;-53
2023/05/21 04:09:44;;;;;;;1.42;1.33;;;;;;;19.33;53.24;101718.94;6123001;23;20598;-53
2023/05/21 04:12:09;;;;;;;1.55;1.40;;;;;;;19.32;52.83;101723.47;6122907;23;20038;-53
2023/05/21 04:14:36;;;;;;;1.80;1.45;;;;;;;19.32;52.90;101722.59;6122621;23;20104;-53
2023/05/21 04:17:03;;;;;;;1.48;1.38;;;;;;;19.31;53.08;101715.50;6122808;23;20002;-53
2023/05/21 04:19:29;;;;;;;1.45;1.30;;;;;;;19.32;53.17;101718.09;6124277;23;20089;-53
2023/05/21 04:21:54;;;;;;;1.35;1.25;;;;;;;19.33;52.75;101721.63;6125611;23;20029;-53
2023/05/21 04:24:21;;;;;;;1.60;1.50;;;;;;;19.31;52.87;101723.59;6125171;23;20017;-53
2023/05/21 04:26:46;;;;;;;1.40;1.30;;;;;;;19.29;52.85;101718.34;6124970;23;20024;-53
2023/05/21 04:29:12;;;;;;;1.67;1.58;;;;;;;19.30;52.94;101719.19;6124979;23;20089;-53
2023/05/21 04:31:37;;;;;;;1.40;1.30;;;;;;;19.29;52.92;101718.34;6124785;23;20006;-53
2023/05/21 04:34:03;;;;;;;1.67;1.45;;;;;;;19.30;52.91;101724.59;6124609;23;20122;-53
2023/05/21 04:36:29;;;;;;;1.40;1.30;;;;;;;19.29;53.09;101728.28;6124537;23;20002;-53
2023/05/21 04:38:54;;;;;;;1.85;1.65;;;;;;;19.29;52.73;101722.88;6123834;23;20006;-53
2023/05/21 04:41:20;;;;;;;1.58;1.48;;;;;;;19.30;52.90;101721.88;6124949;23;20426;-53
2023/05/21 04:43:46;;;;;;;2.20;1.65;;;;;;;19.28;52.82;101727.41;6123033;23;20018;-53
2023/05/21 04:46:11;;;;;;;1.67;1.58;;;;;;;19.29;52.94;101731.00;6125020;23;20398;-53
2023/05/21 04:48:36;;;;;;;2.25;1.45;;;;;;;19.29;52.92;101718.34;6124676;23;20013;-53
2023/05/21 04:51:04;;;;;;;1.92;1.50;;;;;;;19.29;53.20;101728.28;6124618;23;20311;-53
2023/05/21 04:53:30;;;;;;;1.90;1.58;;;;;;;19.28;53.11;101722.00;6124476;23;20053;-53
2023/05/21 04:55:58;;;;;;;1.23;1.13;;;;;;;19.28;53.31;101731.97;6125145;23;20006;-53
2023/05/21 04:58:23;;;;;;;1.90;1.73;;;;;;;19.28;52.90;101731.97;6125196;23;20484;-53
2023/05/21 05:00:50;;;;;;;1.58;1.42;;;;;;;19.27;53.36;101725.72;6098643;23;20006;-53
2023/05/21 05:03:15;;;;;;;1.48;1.23;;;;;;;19.28;53.14;101726.56;6124491;23;20469;-53
2023/05/21 05:05:41;;;;;;;1.58;1.48;;;;;;;19.28;53.24;101726.56;6124165;23;20052;-53
2023/05/21 05:08:06;;;;;;;2.45;1.60;;;;;;;19.27;52.87;101732.97;6124441;23;20064;-53
2023/05/21 05:10:32;;;;;;;1.67;1.58;;;;;;;19.28;52.92;101732.81;6124424;23;20010;-53
2023/05/21 05:12:57;;;;;;;1.50;1.40;;;;;;;19.29;52.98;101733.69;6124933;23;20012;-53
2023/05/21 05:15:22;;;;;;;1.50;1.40;;;;;;;19.28;53.06;101731.97;6124875;23;20437;-53
2023/05/21 05:17:49;;;;;;;1.90;1.38;;;;;;;19.28;53.09;101726.56;6124465;23;20013;-53
2023/05/21 05:20:15;;;;;;;1.60;1.50;;;;;;;19.28;53.41;101721.16;6124123;23;20005;-53
2023/05/21 05:22:40;;;;;;;1.95;1.42;;;;;;;19.28;52.85;101721.16;6124207;23;20093;-53
2023/05/21 05:25:06;;;;;;;1.70;1.52;;;;;;;19.27;53.13;101714.91;6124261;23;20377;-53
2023/05/21 05:27:32;;;;;;;1.30;1.20;;;;;;;19.27;53.08;101717.63;6124170;23;20006;-54
2023/05/21 05:29:57;;;;;;;1.98;1.42;;;;;;;19.27;53.24;101724.88;6124552;23;20017;-51
2023/05/21 05:32:23;;;;;;;2.42;1.63;;;;;;;19.28;53.14;101723.88;6124203;23;20029;-53
2023/05/21 05:34:48;;;;;;;3.00;1.60;;;;;;;19.28;53.40;101726.56;6123967;23;20018;-53
2023/05/21 05:37:13;;;;;;;2.38;1.40;;;;;;;19.28;53.53;101722.00;6124001;23;20006;-53
2023/05/21 05:39:39;;;;;;;5.70;1.92;;;;;;;19.28;53.66;101723.88;6124364;23;20152;-53
2023/05/21 05:42:04;;;;;;;18.25;1.80;;;;;;;19.28;53.59;101721.16;6124149;23;20005;-53
2023/05/21 05:44:29;;;;;;;3.30;1.60;;;;;;;19.28;53.62;101721.16;6124151;23;20369;-53
2023/05/21 05:46:55;;;;;;;1.70;1.38;;;;;;;19.28;53.61;101726.56;6124726;23;20093;-53
2023/05/21 05:49:20;;;;;;;1.70;1.42;;;;;;;19.26;53.63;101724.00;6123752;23;20028;-53
2023/05/21 05:51:46;;;;;;;3.83;1.65;;;;;;;19.27;53.63;101727.56;6123744;23;20002;-53
2023/05/21 05:54:11;;;;;;;5.63;2.00;;;;;;;19.27;53.61;101725.72;6122886;23;20010;-53
2023/05/21 05:56:36;;;;;;;1.70;1.48;;;;;;;19.27;53.78;101719.47;6123604;23;20057;-53
2023/05/21 05:59:02;;;;;;;2.15;1.60;;;;;;;19.27;53.50;101725.72;6123671;23;20081;-53
2023/05/21 06:01:27;;;;;;;2.55;1.70;;;;;;;19.28;53.67;101721.16;6124216;23;20006;-52
2023/05/21 06:03:53;;;;;;;9.32;1.80;;;;;;;19.27;53.82;101725.72;6123681;23;20033;-53
2023/05/21 06:06:18;;;;;;;1.50;1.40;;;;;;;19.27;53.78;101733.81;6123851;23;20014;-52
2023/05/21 06:08:45;;;;;;;2.42;1.67;;;;;;;19.27;53.99;101724.88;6123664;23;20014;-53
2023/05/21 06:11:10;;;;;;;2.05;1.50;;;;;;;19.27;53.91;101725.72;6123879;23;20340;-53
2023/05/21 06:13:35;;;;;;;3.17;1.55;;;;;;;19.27;53.86;101724.88;6123180;23;20045;-53
2023/05/21 06:16:02;;;;;;;1.77;1.67;;;;;;;19.27;53.75;101724.88;6097634;23;20451;-53
2023/05/21 06:18:27;;;;;;;1.77;1.38;;;;;;;19.28;53.67;101731.97;6124024;23;20013;-53
2023/05/21 06:20:52;;;;;;;2.72;1.77;;;;;;;19.28;53.85;101727.41;6123728;23;20009;-54
2023/05/21 06:23:18;;;;;;;1.65;1.45;;;;;;;19.29;53.80;101729.13;6050070;23;20092;-53
2023/05/21 06:25:43;;;;;;;1.80;1.70;;;;;;;19.28;54.08;101727.41;6123812;23;20089;-53
2023/05/21 06:28:08;;;;;;;2.33;1.50;;;;;;;19.28;53.96;101722.00;6123771;23;20013;-53
2023/05/21 06:30:34;;;;;;;1.83;1.70;;;;;;;19.29;53.81;101733.69;6123687;23;20417;-53
2023/05/21 06:32:59;;;;;;;2.40;1.65;;;;;;;19.28;53.99;101724.72;6124254;23;20429;-53
2023/05/21 06:35:24;;;;;;;1.92;1.73;;;;;;;19.29;54.06;101729.13;6123301;23;20030;-52
2023/05/21 06:37:50;;;;;;;2.08;1.60;;;;;;;19.29;54.00;101733.69;6123524;23;20010;-53
2023/05/21 06:40:15;;;;;;;4.93;1.70;;;;;;;19.31;54.08;101723.59;6123392;23;20010;-53
2023/05/21 06:42:41;;;;;;;1.58;1.48;;;;;;;19.30;53.71;101728.13;6123510;23;20037;-52
2023/05/21 06:45:06;;;;;;;1.75;1.65;;;;;;;19.31;54.03;101715.50;6123508;23;20040;-54
2023/05/21 06:47:32;;;;;;;1.70;1.60;;;;;;;19.32;53.88;101722.59;6123429;23;20444;-53
2023/05/21 06:49:58;;;;;;;2.22;2.03;;;;;;;19.32;53.91;101719.91;6124183;23;20005;-53
2023/05/21 06:52:25;;;;;;;1.67;1.58;;;;;;;19.32;54.16;101720.78;6123423;23;20310;-53
2023/05/21 06:54:50;;;;;;;5.57;1.80;;;;;;;19.34;54.10;101720.63;6122867;23;20010;-53
2023/05/21 06:57:16;;;;;;;2.53;1.88;;;;;;;19.33;54.42;101719.78;6123493;23;20010;-53
2023/05/21 06:59:41;;;;;;;2.88;1.90;;;;;;;19.34;54.09;101720.63;6122105;23;20009;-53
2023/05/21 07:02:06;;;;;;;2.53;1.80;;;;;;;19.34;54.26;101723.31;6122654;23;20013;-53
2023/05/21 07:04:33;;;;;;;2.28;1.80;;;;;;;19.34;54.46;101717.91;6123477;23;20065;-53
2023/05/21 07:06:59;;;;;;;4.13;1.65;;;;;;;19.34;54.04;101712.53;6124012;23;20017;-53
2023/05/21 07:09:25;;;;;;;1.98;1.83;;;;;;;19.34;54.25;101713.41;6123298;23;20365;-53
2023/05/21 07:11:51;;;;;;;1.88;1.67;;;;;;;19.35;54.71;101706.16;6123033;23;20310;-55
2023/05/21 07:14:17;;;;;;;3.55;2.00;;;;;;;19.36;54.23;101707.00;6121727;23;20021;-52
2023/05/21 07:16:42;;;;;;;2.25;1.85;;;;;;;19.36;54.39;101696.19;6097097;23;20013;-53
2023/05/21 07:19:08;;;;;;;3.45;1.80;;;;;;;19.37;54.44;101697.91;6123045;23;20480;-54
2023/05/21 07:21:33;;;;;;;1.80;1.58;;;;;;;19.38;54.41;101705.00;6123459;23;20010;-53
2023/05/21 07:23:58;;;;;;;3.45;1.80;;;;;;;19.38;54.45;101699.59;6124076;23;20072;-53
2023/05/21 07:26:25;;;;;;;3.13;2.13;;;;;;;19.38;54.49;101700.50;6123016;23;20038;-53
2023/05/21 07:28:50;;;;;;;5.55;2.03;;;;;;;19.39;54.48;101702.19;6123297;23;20332;-53
2023/05/21 07:31:15;;;;;;;2.05;1.90;;;;;;;19.39;54.48;101702.19;6123420;23;20006;-53
2023/05/21 07:33:41;;;;;;;2.20;2.00;;;;;;;19.40;54.47;101694.94;6122484;23;20385;-53
2023/05/21 07:36:06;;;;;;;2.47;2.22;;;;;;;19.41;55.01;101700.19;6122902;23;20381;-53
2023/05/21 07:38:32;;;;;;;4.47;2.15;;;;;;;19.42;54.55;101703.75;6123751;23;20358;-52
2023/05/21 07:40:57;;;;;;;2.83;2.53;;;;;;;19.42;55.15;101696.53;6123142;23;20080;-53
2023/05/21 07:43:23;;;;;;;5.72;3.47;;;;;;;19.44;55.02;101704.47;6122971;23;20010;-52
2023/05/21 07:45:48;;;;;;;4.80;3.95;;;;;;;19.44;55.28;101697.25;6122781;23;20006;-53
2023/05/21 07:48:13;;;;;;;4.55;3.67;;;;;;;19.44;55.58;101699.94;6122915;23;20053;-53
2023/05/21 07:50:39;;;;;;;4.47;3.70;;;;;;;19.45;55.18;101696.22;6123162;23;20333;-53
2023/05/21 07:53:04;;;;;;;10.35;3.95;;;;;;;19.47;55.97;101698.81;6123402;23;20433;-53
2023/05/21 07:55:30;;;;;;;5.78;3.45;;;;;;;19.47;55.46;101693.41;6126789;23;20010;-52
2023/05/21 07:57:55;;;;;;;7.95;3.53;;;;;;;19.47;55.41;101696.94;6126069;23;20085;-53
2023/05/21 08:00:22;;;;;;;5.40;3.72;;;;;;;19.46;55.73;101689.84;6127044;23;20081;-53
2023/05/21 08:02:48;;;;;;;5.10;3.78;;;;;;;19.48;55.81;101698.69;6126865;23;20041;-53
2023/05/21 08:05:15;;;;;;;5.60;3.38;;;;;;;19.49;55.62;101699.53;6126958;23;20333;-53
2023/05/21 08:07:40;;;;;;;4.68;3.28;;;;;;;19.49;55.69;101694.13;6126809;23;20372;-53
2023/05/21 08:10:06;;;;;;;3.53;3.20;;;;;;;19.49;55.61;101691.41;6126653;23;20013;-53
2023/05/21 08:12:32;;;;;;;5.88;3.47;;;;;;;19.50;55.70;101703.94;6125925;23;20294;-53
2023/05/21 08:14:58;;;;;;;6.93;3.38;;;;;;;19.51;55.70;101692.13;6124937;23;20153;-53
2023/05/21 08:17:23;;;;;;;4.93;3.50;;;;;;;19.52;55.72;101696.56;6125174;23;20410;-53
2023/05/21 08:19:49;;;;;;;5.40;3.47;;;;;;;19.52;55.58;101683.06;6125344;23;20137;-53
2023/05/21 08:22:14;;;;;;;7.30;3.40;;;;;;;19.51;55.32;101695.72;6125266;23;20010;-53
2023/05/21 08:24:40;;;;;;;3.10;2.80;;;;;;;19.53;55.46;101693.72;6125529;23;20013;-53
2023/05/21 08:27:06;;;;;;;5.85;3.13;;;;;;;19.53;55.74;101692.84;6126837;23;20033;-53
2023/05/21 08:29:32;;;;;;;4.63;3.80;;;;;;;19.52;55.57;101683.91;6127524;23;20034;-53
2023/05/21 08:31:57;;;;;;;4.20;3.05;;;;;;;19.53;55.41;101685.63;6126841;23;20006;-53
2023/05/21 08:34:23;;;;;;;4.10;2.80;;;;;;;19.54;55.63;101678.38;6126884;23;20013;-53
2023/05/21 08:36:48;;;;;;;3.35;3.05;;;;;;;19.56;55.54;101681.78;6126577;23;20005;-53
2023/05/21 08:39:14;;;;;;;3.85;3.17;;;;;;;19.57;55.29;101682.63;6126669;23;20064;-53
2023/05/21 08:41:42;;;;;;;7.85;3.30;;;;;;;19.58;55.54;101684.34;6100932;23;20267;-53
2023/05/21 08:44:11;;;;;;;3.53;2.75;;;;;;;19.57;55.41;101675.38;6127002;23;20006;-53
2023/05/21 08:46:39;;;;;;;4.63;3.22;;;;;;;19.58;55.42;101674.41;6127185;23;20081;-53
2023/05/21 08:49:10;;;;;;;3.10;2.72;;;;;;;19.60;55.46;101676.97;6127115;23;20076;-53
2023/05/21 08:51:37;;;;;;;4.68;2.70;;;;;;;19.60;55.70;101669.72;6127363;23;20328;-53
2023/05/21 08:54:04;;;;;;;3.10;2.83;;;;;;;19.61;55.50;101665.16;6127377;23;20002;-53
2023/05/21 08:56:31;;;;;;;3.58;2.90;;;;;;;19.62;55.55;101674.97;6126630;23;20025;-53
2023/05/21 08:58:57;;;;;;;4.60;2.80;;;;;;;19.62;55.56;101666.88;6126676;23;20006;-53
2023/05/21 09:01:25;;;;;;;5.00;3.00;;;;;;;19.63;55.59;101665.88;6126605;23;20021;-53
2023/05/21 09:03:51;;;;;;;3.72;3.05;;;;;;;19.62;55.72;101661.47;6126482;23;20017;-53
2023/05/21 09:06:17;;;;;;;3.83;3.35;;;;;;;19.62;55.43;101664.19;6124440;23;20012;-52
2023/05/21 09:08:44;;;;;;;3.85;3.15;;;;;;;19.64;55.83;101657.63;6125394;23;20006;-53
2023/05/21 09:11:11;;;;;;;5.57;3.33;;;;;;;19.64;55.53;101660.34;6125276;23;20081;-53
2023/05/21 09:13:38;;;;;;;5.95;3.38;;;;;;;19.65;55.73;101663.91;6125292;23;20433;-53
2023/05/21 09:16:05;;;;;;;3.35;3.00;;;;;;;19.65;55.52;101664.75;6125531;23;20006;-53
2023/05/21 09:18:30;;;;;;;3.15;2.80;;;;;;;19.68;55.74;101666.31;6098940;23;20022;-53
2023/05/21 09:20:56;;;;;;;4.18;3.10;;;;;;;19.67;55.71;101665.47;6125058;23;20392;-53
2023/05/21 09:23:21;;;;;;;3.72;3.28;;;;;;;19.68;55.77;101658.22;6125022;23;20137;-53
2023/05/21 09:25:48;;;;;;;3.97;3.20;;;;;;;19.69;55.64;101670.75;6099131;23;20010;-53
2023/05/21 09:28:15;;;;;;;3.88;2.80;;;;;;;19.69;55.65;101662.63;6124899;23;20416;-53
2023/05/21 09:30:51;;;;;;;2.90;2.55;;;;;;;19.70;55.47;101664.34;6124956;23;20377;-53
2023/05/21 09:33:28;;;;;;;3.25;2.90;;;;;;;19.70;55.76;101667.91;6125190;23;20028;-53
2023/05/21 09:35:54;;;;;;;4.35;3.35;;;;;;;19.71;55.66;101661.50;6124647;23;20329;-53
2023/05/21 09:38:22;;;;;;;3.50;3.00;;;;;;;19.70;56.02;101661.63;6124923;23;20018;-53
2023/05/21 09:40:47;;;;;;;3.30;3.00;;;;;;;19.72;55.82;101656.97;6124983;23;20372;-53
2023/05/21 09:43:15;;;;;;;3.28;3.03;;;;;;;19.72;55.67;101660.56;6124832;23;20006;-53
2023/05/21 09:45:58;;;;;;;4.35;2.95;;;;;;;19.73;55.79;101661.41;6124924;23;20016;-53
2023/05/21 09:48:35;;;;;;;4.30;3.25;;;;;;;19.75;55.82;101655.88;6124964;23;20421;-53
2023/05/21 09:51:06;;;;;;;3.70;2.90;;;;;;;19.74;55.90;101644.19;6125099;23;20038;-53
2023/05/21 09:53:32;;;;;;;5.80;2.92;;;;;;;19.75;55.66;101647.75;6124969;23;20005;-53
2023/05/21 09:55:58;;;;;;;2.85;2.65;;;;;;;19.75;55.78;101643.19;6124741;23;20125;-53
2023/05/21 09:58:24;;;;;;;4.25;3.05;;;;;;;19.76;56.01;101649.44;6124760;23;20061;-53
2023/05/21 10:00:51;;;;;;;3.38;2.80;;;;;;;19.76;55.88;101644.91;6124692;23;20025;-53
2023/05/21 10:03:22;;;;;;;4.68;3.13;;;;;;;19.77;55.82;101646.63;6124556;23;20010;-53
2023/05/21 10:05:50;;;;;;;3.22;2.80;;;;;;;19.77;55.56;101646.63;6124692;23;20421;-53
2023/05/21 10:08:20;;;;;;;3.70;2.90;;;;;;;19.78;56.14;101645.63;6125133;23;20325;-53
2023/05/21 10:10:48;;;;;;;3.28;2.97;;;;;;;19.80;55.99;101640.06;6124798;23;20006;-53
2023/05/21 10:13:17;;;;;;;6.45;3.50;;;;;;;19.79;56.12;101638.38;6098189;23;20016;-52
2023/05/21 10:15:50;;;;;;;3.47;2.92;;;;;;;19.81;55.99;101639.09;6124470;23;20037;-53
2023/05/21 10:18:17;;;;;;;4.18;3.22;;;;;;;19.81;55.99;101637.22;6124762;23;20009;-53
2023/05/21 10:20:44;;;;;;;3.95;2.97;;;;;;;19.83;56.23;101634.41;6124573;23;20080;-53
2023/05/21 10:23:11;;;;;;;3.55;3.08;;;;;;;19.82;56.12;101622.75;6125168;23;20006;-53
2023/05/21 10:25:37;;;;;;;3.45;3.05;;;;;;;19.83;56.23;101627.13;6124699;23;20083;-54
2023/05/21 10:28:05;;;;;;;4.38;3.25;;;;;;;19.84;56.03;101619.91;6098885;23;20038;-53
2023/05/21 10:30:31;;;;;;;3.60;3.30;;;;;;;19.85;56.30;101613.50;6124306;23;20060;-53
2023/05/21 10:32:58;;;;;;;3.33;3.03;;;;;;;19.86;56.08;101626.03;6124318;23;20006;-53
2023/05/21 10:35:23;;;;;;;5.13;3.28;;;;;;;19.86;56.29;101615.22;6124384;23;20033;-53
2023/05/21 10:37:50;;;;;;;3.40;3.10;;;;;;;19.87;56.29;101609.66;6124111;23;20002;-53
2023/05/21 10:40:15;;;;;;;4.20;3.40;;;;;;;19.87;56.42;101615.06;6124137;23;20411;-53
2023/05/21 10:43:02;;;;;;;3.25;2.95;;;;;;;19.89;56.38;101607.66;6125010;23;20010;-53
2023/05/21 10:45:47;;;;;;;4.43;3.63;;;;;;;19.90;56.26;101608.53;6124046;23;20002;-53
2023/05/21 10:48:32;;;;;;;4.20;3.10;;;;;;;19.91;56.41;101603.00;6124263;23;20447;-53
2023/05/21 10:51:13;;;;;;;3.95;3.40;;;;;;;19.90;56.11;101603.97;6124180;23;20002;-53
2023/05/21 10:54:23;;;;;;;4.75;3.60;;;;;;;19.91;56.29;101600.28;6124671;23;20096;-53
2023/05/21 10:57:19;;;;;;;3.30;2.95;;;;;;;19.91;56.72;101589.47;6124171;23;20326;-53
2023/05/21 10:59:46;;;;;;;3.97;3.45;;;;;;;19.93;56.44;101592.00;6124066;23;20006;-53
2023/05/21 11:02:16;;;;;;;3.65;3.35;;;;;;;19.94;56.44;101584.78;6124430;23;20073;-53
2023/05/21 11:04:47;;;;;;;3.90;3.50;;;;;;;19.93;56.42;101581.19;6124430;23;20053;-53
2023/05/21 11:07:14;;;;;;;;;;;;;;;20.02;55.96;101576.81;6124479;23;20068;-53
2023/05/21 11:09:40;;;;;;;4.50;4.00;;;;;;;19.96;56.67;101580.94;6124434;23;20351;-52
2023/05/21 11:12:06;;;;;;;4.28;3.65;;;;;;;19.97;56.47;101579.06;6123952;23;20006;-52
2023/05/21 11:14:39;;;;;;;4.38;3.78;;;;;;;19.96;56.48;101569.28;6123499;23;20013;-53
2023/05/21 11:17:12;;;;;;;4.47;4.07;;;;;;;19.96;56.77;101564.72;6124241;23;20428;-53
2023/05/21 11:19:46;;;;;;;4.95;3.78;;;;;;;19.97;56.89;101565.56;6124104;23;20428;-53
2023/05/21 11:22:20;;;;;;;4.43;3.38;;;;;;;19.99;56.80;101559.03;6124331;23;20014;-53
2023/05/21 11:24:47;;;;;;;4.63;3.78;;;;;;;20.00;56.66;101566.13;6098076;23;20018;-53